Arthur N Neu Airport
Friday 3:15 AM
Weather Partly Cloudy
Temperature 36°
Dew Point 23°
Feels Like 26°
Relative Humidity 60
%
Visibility 10
mi
Pressure 1006.1
mb
Wind Direction S
Wind Speed 16
mph
Last Hour Precip 0.00
"
KCIN 020915Z AUTO 18014KT 10SM SCT038 02/M05 A2971 RMK AO2

Recent Observations

Time Present Weather Temp DP Feels RH% Vsby Pressure Ceiling Direction Speed Gust 1h Precip
3:15AM
VFR
36° 23° 26° 60
%
10
mi
1006.1
mb
None S 16
mph
0.00"
KCIN 020915Z AUTO 18014KT 10SM SCT038 02/M05 A2971 RMK AO2
2:55AM
VFR
36° 23° 26° 60
%
10
mi
1006.4
mb
None S 16
mph
22
mph
0.00"
KCIN 020855Z AUTO 18014G19KT 10SM SCT037 02/M05 A2972 RMK AO2
2:35AM
VFR
36° 21° 27° 55
%
10
mi
1006.8
mb
None S 13
mph
18
mph
0.00"
KCIN 020835Z AUTO 19011G16KT 10SM SCT037 02/M06 A2973 RMK AO2
2:15AM
VFR
36° 21° 27° 55
%
10
mi
1007.1
mb
None S 14
mph
0.00"
KCIN 020815Z AUTO 19012KT 10SM FEW036 02/M06 A2974 RMK AO2
1:55AM
VFR
36° 21° 25° 55
%
10
mi
1007.5
mb
None SSW 17
mph
0.00"
KCIN 020755Z AUTO 20015KT 10SM CLR 02/M06 A2975 RMK AO2
1:35AM
VFR
36° 21° 27° 55
%
10
mi
1007.8
mb
None SSW 13
mph
21
mph
0.00"
KCIN 020735Z AUTO 20011G18KT 10SM CLR 02/M06 A2976 RMK AO2
1:15AM
VFR
36° 21° 28° 55
%
10
mi
1008.1
mb
None S 10
mph
16
mph
0.00"
KCIN 020715Z AUTO 19009G14KT 10SM CLR 02/M06 A2977 RMK AO2
12:55AM
VFR
36° 21° 27° 55
%
10
mi
1008.1
mb
None S 14
mph
22
mph
0.00"
KCIN 020655Z AUTO 18012G19KT 10SM CLR 02/M06 A2977 RMK AO2
12:35AM
VFR
37° 21° 28° 52
%
10
mi
1008.1
mb
None S 16
mph
25
mph
0.00"
KCIN 020635Z AUTO 19014G22KT 10SM CLR 03/M06 A2977 RMK AO2
12:15AM
VFR
37° 23° 27° 56
%
10
mi
1008.5
mb
None S 18
mph
25
mph
0.00"
KCIN 020615Z AUTO 19016G22KT 10SM CLR 03/M05 A2978 RMK AO2
11:55PM
VFR
37° 23° 27° 56
%
10
mi
1009.1
mb
None SSW 18
mph
0.00"
KCIN 020555Z AUTO 20016KT 10SM CLR 03/M05 A2980 RMK AO2
11:35PM
VFR
37° 23° 28° 56
%
10
mi
1009.1
mb
None SSW 17
mph
0.00"
KCIN 020535Z AUTO 20015KT 10SM CLR 03/M05 A2980 RMK AO2
11:15PM
VFR
37° 23° 27° 56
%
10
mi
1009.1
mb
None S 21
mph
0.00"
KCIN 020515Z AUTO 19018KT 10SM CLR 03/M05 A2980 RMK AO2
10:55PM
VFR
37° 23° 27° 56
%
10
mi
1009.1
mb
None S 22
mph
0.00"
KCIN 020455Z AUTO 19019KT 10SM CLR 03/M05 A2980 RMK AO2
10:35PM
VFR
37° 23° 27° 56
%
10
mi
1009.8
mb
None SSW 18
mph
26
mph
0.00"
KCIN 020435Z AUTO 20016G23KT 10SM CLR 03/M05 A2982 RMK AO2
10:15PM
VFR
37° 23° 27° 56
%
10
mi
1010.5
mb
None SSW 20
mph
0.00"
KCIN 020415Z AUTO 20017KT 10SM CLR 03/M05 A2984 RMK AO2
9:55PM
VFR
36° 23° 27° 60
%
10
mi
1010.8
mb
None SSW 14
mph
0.00"
KCIN 020355Z AUTO 20012KT 10SM CLR 02/M05 A2985 RMK AO2
9:35PM
VFR
36° 23° 27° 60
%
10
mi
1011.2
mb
None SSW 13
mph
0.00"
KCIN 020335Z AUTO 20011KT 10SM FEW030 02/M05 A2986 RMK AO2
9:15PM
VFR
36° 23° 27° 60
%
10
mi
1011.2
mb
None S 12
mph
0.00"
KCIN 020315Z AUTO 19010KT 10SM CLR 02/M05 A2986 RMK AO2
8:55PM
VFR
37° 23° 29° 56
%
10
mi
1011.2
mb
None S 13
mph
20
mph
0.00"
KCIN 020255Z AUTO 19011G17KT 10SM CLR 03/M05 A2986 RMK AO2
Click here to show this page without METARs/TAFs included